createdAt,value
2022-11-24T00:01:20.546Z,100221.19
2022-11-24T00:03:56.238Z,100229.47
2022-11-24T00:06:23.800Z,100240.44
2022-11-24T00:08:50.466Z,100230.97
2022-11-24T00:11:19.656Z,100234.91
2022-11-24T00:13:46.197Z,100237.56
2022-11-24T00:16:18.768Z,100238.78
2022-11-24T00:18:47.910Z,100235.56
2022-11-24T00:21:15.793Z,100233.63
2022-11-24T00:23:42.581Z,100226.06
2022-11-24T00:26:11.903Z,100245.81
2022-11-24T00:28:39.736Z,100243.41
2022-11-24T00:31:18.510Z,100240.69
2022-11-24T00:33:46.628Z,100239.91
2022-11-24T00:36:13.253Z,100239.59
2022-11-24T00:38:39.888Z,100242.72
2022-11-24T00:41:06.854Z,100253.75
2022-11-24T00:43:33.383Z,100241.47
2022-11-24T00:46:00.104Z,100256.09
2022-11-24T00:48:26.891Z,100261.63
2022-11-24T00:51:08.113Z,100259.66
2022-11-24T00:53:35.137Z,100257.25
2022-11-24T00:56:04.034Z,100258.34
2022-11-24T00:58:30.704Z,100250.81
2022-11-24T01:01:03.289Z,100254.22
2022-11-24T01:03:29.877Z,100264.47
2022-11-24T01:05:56.533Z,100262.91
2022-11-24T01:08:23.026Z,100266.72
2022-11-24T01:10:49.528Z,100260.44
2022-11-24T01:13:16.067Z,100274.59
2022-11-24T01:15:42.639Z,100265.50
2022-11-24T01:18:09.862Z,100274.22
2022-11-24T01:20:37.674Z,100277.78
2022-11-24T01:23:04.166Z,100281.75
2022-11-24T01:25:30.640Z,100290.34
2022-11-24T01:27:57.146Z,100295.88
2022-11-24T01:30:23.698Z,100308.56
2022-11-24T01:32:50.206Z,100295.22
2022-11-24T01:35:16.728Z,100307.53
2022-11-24T01:37:43.203Z,100314.13
2022-11-24T01:40:10.510Z,100297.13
2022-11-24T01:42:40.636Z,100308.63
2022-11-24T01:45:25.937Z,100316.16
2022-11-24T01:47:52.555Z,100321.75
2022-11-24T01:50:19.262Z,100317.03
2022-11-24T01:52:51.592Z,100317.94
2022-11-24T01:55:22.168Z,100311.25
2022-11-24T01:58:13.311Z,100322.75
2022-11-24T02:00:43.361Z,100323.28
2022-11-24T02:03:22.995Z,100317.19
2022-11-24T02:06:04.608Z,100312.72
2022-11-24T02:08:39.844Z,100319.53
2022-11-24T02:11:07.005Z,100301.41
2022-11-24T02:13:37.358Z,100316.44
2022-11-24T02:16:06.630Z,100290.56
2022-11-24T02:18:33.525Z,100322.66
2022-11-24T02:21:00.553Z,100328.25
2022-11-24T02:23:48.505Z,100327.50
2022-11-24T02:26:32.045Z,100315.94
2022-11-24T02:28:59.219Z,100330.56
2022-11-24T02:31:26.100Z,100337.25
2022-11-24T02:33:52.897Z,100336.00
2022-11-24T02:36:19.428Z,100335.66
2022-11-24T02:38:45.931Z,100343.50
2022-11-24T02:41:16.393Z,100350.50
2022-11-24T02:43:47.249Z,100362.69
2022-11-24T02:46:14.386Z,100374.91
2022-11-24T02:48:40.953Z,100374.53
2022-11-24T02:51:07.472Z,100370.88
2022-11-24T02:53:34.100Z,100383.31
2022-11-24T02:56:00.745Z,100393.44
2022-11-24T02:58:27.335Z,100400.94
2022-11-24T03:00:54.538Z,100410.16
2022-11-24T03:03:21.893Z,100414.31
2022-11-24T03:05:48.380Z,100426.50
2022-11-24T03:08:14.874Z,100423.72
2022-11-24T03:10:41.456Z,100433.88
2022-11-24T03:13:08.306Z,100441.84
2022-11-24T03:15:36.000Z,100439.09
2022-11-24T03:18:03.045Z,100444.22
2022-11-24T03:20:30.096Z,100444.31
2022-11-24T03:22:56.749Z,100447.38
2022-11-24T03:25:23.273Z,100448.19
2022-11-24T03:27:49.770Z,100444.22
2022-11-24T03:30:16.701Z,100453.00
2022-11-24T03:32:43.319Z,100461.94
2022-11-24T03:35:09.847Z,100454.78
2022-11-24T03:37:36.445Z,100463.03
2022-11-24T03:40:03.141Z,100467.66
2022-11-24T03:42:29.662Z,100459.34
2022-11-24T03:44:56.400Z,100473.03
2022-11-24T03:47:22.913Z,100473.28
2022-11-24T03:49:49.567Z,100464.19
2022-11-24T03:52:16.036Z,100475.91
2022-11-24T03:54:42.613Z,100474.63
2022-11-24T03:57:09.371Z,100477.97
2022-11-24T03:59:35.947Z,100485.34
2022-11-24T04:02:02.669Z,100488.72
2022-11-24T04:04:29.217Z,100490.09
2022-11-24T04:06:55.901Z,100487.72
2022-11-24T04:09:22.422Z,100482.03
2022-11-24T04:12:07.281Z,100497.22
2022-11-24T04:14:34.070Z,100507.19
2022-11-24T04:17:00.819Z,100511.38
2022-11-24T04:19:27.315Z,100512.91
2022-11-24T04:21:54.267Z,100517.38
2022-11-24T04:24:20.772Z,100521.38
2022-11-24T04:26:47.287Z,100535.84
2022-11-24T04:29:13.958Z,100529.97
2022-11-24T04:31:40.476Z,100533.81
2022-11-24T04:34:06.990Z,100535.03
2022-11-24T04:36:33.663Z,100530.25
2022-11-24T04:39:24.750Z,100536.19
2022-11-24T04:41:48.208Z,100539.38
2022-11-24T04:44:14.950Z,100547.16
2022-11-24T04:46:41.594Z,100537.28
2022-11-24T04:49:11.608Z,100548.63
2022-11-24T04:51:42.632Z,100566.06
2022-11-24T04:54:11.632Z,100556.94
2022-11-24T04:56:39.212Z,100557.09
2022-11-24T04:59:08.401Z,100551.81
2022-11-24T05:01:35.337Z,100552.41
2022-11-24T05:04:02.020Z,100558.97
2022-11-24T05:06:28.676Z,100568.44
2022-11-24T05:08:55.231Z,100569.16
2022-11-24T05:11:21.849Z,100576.41
2022-11-24T05:13:48.341Z,100588.13
2022-11-24T05:16:14.945Z,100586.81
2022-11-24T05:18:41.646Z,100590.50
2022-11-24T05:21:08.233Z,100605.13
2022-11-24T05:23:34.758Z,100593.25
2022-11-24T05:26:02.123Z,100611.13
2022-11-24T05:28:29.159Z,100604.50
2022-11-24T05:31:00.229Z,100603.34
2022-11-24T05:33:28.634Z,100607.47
2022-11-24T05:35:55.353Z,100604.56
2022-11-24T05:38:23.716Z,100612.44
2022-11-24T05:40:50.203Z,100627.81
2022-11-24T05:43:17.324Z,100614.69
2022-11-24T05:45:44.540Z,100629.75
2022-11-24T05:48:13.972Z,100634.81
2022-11-24T05:50:40.923Z,100627.81
2022-11-24T05:53:10.248Z,100632.25
2022-11-24T05:55:37.707Z,100649.72
2022-11-24T05:58:06.412Z,100650.06
2022-11-24T06:00:34.952Z,100651.66
2022-11-24T06:03:01.967Z,100642.97
2022-11-24T06:05:29.408Z,100645.22
2022-11-24T06:07:56.329Z,100649.91
2022-11-24T06:10:25.973Z,100661.97
2022-11-24T06:12:53.114Z,100664.22
2022-11-24T06:15:19.660Z,100679.28
2022-11-24T06:17:54.234Z,100688.41
2022-11-24T06:20:20.720Z,100675.00
2022-11-24T06:22:48.307Z,100684.50
2022-11-24T06:25:16.236Z,100698.38
2022-11-24T06:27:43.504Z,100697.50
2022-11-24T06:30:10.873Z,100683.25
2022-11-24T06:32:37.458Z,100695.13
2022-11-24T06:35:04.877Z,100710.84
2022-11-24T06:37:31.530Z,100701.69
2022-11-24T06:39:58.122Z,100718.63
2022-11-24T06:42:24.601Z,100729.97
2022-11-24T06:44:51.182Z,100733.00
2022-11-24T06:47:17.736Z,100742.94
2022-11-24T06:49:44.317Z,100745.59
2022-11-24T06:52:11.173Z,100742.94
2022-11-24T06:54:37.793Z,100742.75
2022-11-24T06:57:04.303Z,100756.16
2022-11-24T06:59:30.850Z,100761.28
2022-11-24T07:01:57.548Z,100765.19
2022-11-24T07:04:24.081Z,100772.91
2022-11-24T07:06:50.625Z,100767.66
2022-11-24T07:09:17.184Z,100771.19
2022-11-24T07:11:43.693Z,100771.81
2022-11-24T07:14:10.557Z,100775.03
2022-11-24T07:16:37.491Z,100778.84
2022-11-24T07:19:04.551Z,100792.69
2022-11-24T07:21:31.281Z,100796.94
2022-11-24T07:23:58.637Z,100795.50
2022-11-24T07:26:26.012Z,100805.72
2022-11-24T07:28:52.824Z,100806.97
2022-11-24T07:31:21.657Z,100811.19
2022-11-24T07:33:49.929Z,100821.41
2022-11-24T07:36:16.534Z,100820.00
2022-11-24T07:38:43.092Z,100828.25
2022-11-24T07:41:11.803Z,100820.25
2022-11-24T07:43:39.427Z,100819.53
2022-11-24T07:46:08.491Z,100831.00
2022-11-24T07:48:35.141Z,100833.00
2022-11-24T07:51:03.122Z,100837.09
2022-11-24T07:53:29.744Z,100840.28
2022-11-24T07:56:01.727Z,100833.81
2022-11-24T07:58:32.739Z,100846.59
2022-11-24T08:01:01.219Z,100846.59
2022-11-24T08:03:28.018Z,100850.59
2022-11-24T08:06:22.209Z,100858.47
2022-11-24T08:08:42.433Z,100855.47
2022-11-24T08:11:12.864Z,100854.31
2022-11-24T08:13:39.940Z,100854.50
2022-11-24T08:16:12.151Z,100871.34
2022-11-24T08:18:39.639Z,100876.06
2022-11-24T08:21:06.969Z,100876.84
2022-11-24T08:23:34.279Z,100868.97
2022-11-24T08:26:05.588Z,100879.34
2022-11-24T08:28:33.404Z,100892.81
2022-11-24T08:31:09.321Z,100885.03
2022-11-24T08:33:36.042Z,100889.72
2022-11-24T08:36:04.647Z,100892.19
2022-11-24T08:38:31.242Z,100887.31
2022-11-24T08:41:06.485Z,100893.91
2022-11-24T08:43:33.192Z,100895.41
2022-11-24T08:46:05.283Z,100895.13
2022-11-24T08:48:32.986Z,100909.88
2022-11-24T08:51:06.098Z,100912.16
2022-11-24T08:53:32.773Z,100920.09
2022-11-24T08:56:00.675Z,100923.34
2022-11-24T08:58:29.201Z,100918.63
2022-11-24T09:00:56.030Z,100928.59
2022-11-24T09:03:22.650Z,100917.31
2022-11-24T09:05:52.331Z,100925.38
2022-11-24T09:08:19.428Z,100928.59
2022-11-24T09:10:46.746Z,100935.34
2022-11-24T09:13:13.276Z,100934.28
2022-11-24T09:15:39.808Z,100923.97
2022-11-24T09:18:06.382Z,100934.88
2022-11-24T09:20:33.302Z,100945.19
2022-11-24T09:22:59.968Z,100931.50
2022-11-24T09:25:27.197Z,100943.47
2022-11-24T09:27:54.580Z,100950.28
2022-11-24T09:30:21.436Z,100945.59
2022-11-24T09:32:48.053Z,100948.34
2022-11-24T09:35:14.768Z,100951.16
2022-11-24T09:37:43.413Z,100959.25
2022-11-24T09:40:14.266Z,100962.94
2022-11-24T09:43:11.852Z,100959.13
2022-11-24T09:46:06.807Z,100955.81
2022-11-24T09:48:40.708Z,100963.38
2022-11-24T09:51:11.242Z,100966.25
2022-11-24T09:54:09.209Z,100966.72
2022-11-24T09:56:40.738Z,100963.31
2022-11-24T09:59:20.300Z,100965.28
2022-11-24T10:01:48.535Z,100980.34
2022-11-24T10:04:18.265Z,100977.31
2022-11-24T10:06:55.115Z,100981.13
2022-11-24T10:09:34.642Z,100982.97
2022-11-24T10:12:16.511Z,100981.44
2022-11-24T10:14:59.094Z,100976.91
2022-11-24T10:17:45.550Z,100983.31
2022-11-24T10:20:30.862Z,100982.84
2022-11-24T10:23:12.362Z,100981.19
2022-11-24T10:25:50.431Z,100979.94
2022-11-24T10:28:17.068Z,100972.91
2022-11-24T10:30:43.840Z,100969.47
2022-11-24T10:33:19.071Z,100974.69
2022-11-24T10:35:55.658Z,100970.56
2022-11-24T10:38:35.062Z,100970.91
2022-11-24T10:41:05.324Z,100957.94
2022-11-24T10:43:31.887Z,100954.34
2022-11-24T10:46:26.369Z,100959.53
2022-11-24T10:48:57.442Z,100952.94
2022-11-24T10:51:42.830Z,100960.94
2022-11-24T10:54:19.805Z,100954.50
2022-11-24T10:56:47.846Z,100963.75
2022-11-24T10:59:21.586Z,100971.13
2022-11-24T11:01:48.515Z,100960.31
2022-11-24T11:04:29.427Z,100958.25
2022-11-24T11:07:23.606Z,100965.75
2022-11-24T11:09:50.388Z,100958.91
2022-11-24T11:12:44.770Z,100960.00
2022-11-24T11:15:27.338Z,100972.06
2022-11-24T11:17:59.001Z,100969.59
2022-11-24T11:20:34.095Z,100969.94
2022-11-24T11:23:12.823Z,100964.53
2022-11-24T11:25:41.164Z,100975.25
2022-11-24T11:28:27.292Z,100978.88
2022-11-24T11:31:22.041Z,100968.56
2022-11-24T11:34:03.641Z,100971.78
2022-11-24T11:36:33.030Z,100967.91
2022-11-24T11:39:00.083Z,100964.94
2022-11-24T11:41:33.231Z,100959.75
2022-11-24T11:44:35.478Z,100952.47
2022-11-24T11:47:14.548Z,100951.38
2022-11-24T11:49:41.148Z,100944.06
2022-11-24T11:52:16.425Z,100953.53
2022-11-24T11:55:01.317Z,100935.84
2022-11-24T11:57:35.288Z,100949.88
2022-11-24T12:00:14.866Z,100948.75
2022-11-24T12:03:19.125Z,100948.09
2022-11-24T12:06:10.023Z,100949.44
2022-11-24T12:09:17.878Z,100947.97
2022-11-24T12:11:39.829Z,100955.81
2022-11-24T12:14:28.033Z,100966.47
2022-11-24T12:17:07.123Z,100960.75
2022-11-24T12:19:45.829Z,100959.34
2022-11-24T12:22:49.882Z,100963.59
2022-11-24T12:25:38.767Z,100963.34
2022-11-24T12:28:38.052Z,100964.72
2022-11-24T12:31:18.382Z,100966.47
2022-11-24T12:34:22.139Z,100967.06
2022-11-24T12:36:57.664Z,100965.97
2022-11-24T12:39:42.751Z,100965.75
2022-11-24T12:42:15.632Z,100963.00
2022-11-24T12:44:55.262Z,100971.31
2022-11-24T12:47:45.146Z,100970.91
2022-11-24T12:50:24.679Z,100959.31
2022-11-24T12:53:00.531Z,100969.34
2022-11-24T12:55:29.107Z,100958.41
2022-11-24T12:58:09.299Z,100951.94
2022-11-24T13:01:02.591Z,100958.00
2022-11-24T13:04:23.445Z,100954.44
2022-11-24T13:06:53.066Z,100960.88
2022-11-24T13:09:20.240Z,100954.97
2022-11-24T13:11:57.884Z,100954.97
2022-11-24T13:14:34.684Z,100957.38
2022-11-24T13:17:30.389Z,100958.88
2022-11-24T13:20:30.719Z,100957.97
2022-11-24T13:23:02.400Z,100942.59
2022-11-24T13:25:31.112Z,100953.03
2022-11-24T13:28:01.646Z,100951.53
2022-11-24T13:30:34.407Z,100934.41
2022-11-24T13:33:16.888Z,100944.25
2022-11-24T13:36:02.168Z,100933.75
2022-11-24T13:38:52.560Z,100923.88
2022-11-24T13:41:34.283Z,100923.88
2022-11-24T13:44:16.342Z,100921.66
2022-11-24T13:47:06.199Z,100923.94
2022-11-24T13:49:46.560Z,100935.88
2022-11-24T13:52:34.783Z,100940.78
2022-11-24T13:55:06.066Z,100926.88
2022-11-24T13:57:43.031Z,100930.00
2022-11-24T14:00:37.385Z,100929.03
2022-11-24T14:03:17.603Z,100927.75
2022-11-24T14:05:52.701Z,100934.94
2022-11-24T14:08:26.575Z,100930.97
2022-11-24T14:10:56.604Z,100937.78
2022-11-24T14:13:26.107Z,100933.78
2022-11-24T14:16:15.121Z,100935.72
2022-11-24T14:18:47.337Z,100923.84
2022-11-24T14:21:20.149Z,100936.38
2022-11-24T14:24:20.318Z,100943.09
2022-11-24T14:26:47.637Z,100928.94
2022-11-24T14:29:22.269Z,100937.97
2022-11-24T14:31:59.993Z,100934.53
2022-11-24T14:34:29.474Z,100937.75
2022-11-24T14:36:57.364Z,100942.47
2022-11-24T14:39:25.860Z,100943.28
2022-11-24T14:42:04.887Z,100942.13
2022-11-24T14:44:56.373Z,100954.16
2022-11-24T14:47:32.436Z,100951.97
2022-11-24T14:50:12.064Z,100946.06
2022-11-24T14:52:54.091Z,100950.69
2022-11-24T14:55:39.337Z,100953.78
2022-11-24T14:58:27.763Z,100954.22
2022-11-24T15:01:19.337Z,100946.56
2022-11-24T15:03:46.585Z,100951.34
2022-11-24T15:06:19.768Z,100951.22
2022-11-24T15:08:49.171Z,100953.97
2022-11-24T15:11:16.074Z,100952.81
2022-11-24T15:13:54.069Z,100949.72
2022-11-24T15:16:24.490Z,100942.41
2022-11-24T15:19:02.218Z,100935.16
2022-11-24T15:21:37.317Z,100939.22
2022-11-24T15:24:18.076Z,100944.09
2022-11-24T15:26:45.820Z,100950.09
2022-11-24T15:29:13.210Z,100946.84
2022-11-24T15:31:40.884Z,100942.00
2022-11-24T15:34:09.611Z,100948.94
2022-11-24T15:36:36.176Z,100949.38
2022-11-24T15:39:02.895Z,100941.00
2022-11-24T15:41:33.541Z,100938.63
2022-11-24T15:44:00.354Z,100944.66
2022-11-24T15:46:37.694Z,100937.78
2022-11-24T15:49:05.262Z,100943.16
2022-11-24T15:51:32.185Z,100950.16
2022-11-24T15:54:01.165Z,100947.81
2022-11-24T15:56:33.884Z,100952.59
2022-11-24T15:59:01.637Z,100956.75
2022-11-24T16:01:31.613Z,100955.63
2022-11-24T16:03:58.421Z,100956.41
2022-11-24T16:06:25.700Z,100956.25
2022-11-24T16:08:53.449Z,100957.44
2022-11-24T16:11:20.983Z,100957.34
2022-11-24T16:13:52.392Z,100954.31
2022-11-24T16:16:20.700Z,100954.72
2022-11-24T16:18:47.399Z,100958.28
2022-11-24T16:21:13.989Z,100951.91
2022-11-24T16:23:40.892Z,100954.94
2022-11-24T16:26:07.825Z,100945.97
2022-11-24T16:28:34.363Z,100943.63
2022-11-24T16:31:01.050Z,100944.22
2022-11-24T16:33:29.746Z,100945.81
2022-11-24T16:35:56.263Z,100949.72
2022-11-24T16:38:22.878Z,100943.50
2022-11-24T16:40:56.435Z,100955.28
2022-11-24T16:43:24.703Z,100948.34
2022-11-24T16:46:18.932Z,100957.66
2022-11-24T16:48:47.026Z,100960.00
2022-11-24T16:51:14.360Z,100959.31
2022-11-24T16:53:41.549Z,100964.13
2022-11-24T16:56:09.107Z,100956.13
2022-11-24T16:58:40.876Z,100966.97
2022-11-24T17:01:10.639Z,100969.78
2022-11-24T17:03:38.608Z,100966.38
2022-11-24T17:06:13.152Z,100962.81
2022-11-24T17:08:41.252Z,100955.41
2022-11-24T17:11:16.679Z,100956.78
2022-11-24T17:13:45.430Z,100957.59
2022-11-24T17:16:14.668Z,100958.47
2022-11-24T17:18:41.718Z,100959.78
2022-11-24T17:21:13.224Z,100939.25
2022-11-24T17:23:40.201Z,100951.06
2022-11-24T17:26:10.482Z,100950.94
2022-11-24T17:28:37.885Z,100958.41
2022-11-24T17:31:19.773Z,100949.69
2022-11-24T17:33:46.461Z,100943.97
2022-11-24T17:36:13.062Z,100942.28
2022-11-24T17:38:39.661Z,100941.78
2022-11-24T17:41:06.213Z,100942.00
2022-11-24T17:43:33.275Z,100940.16
2022-11-24T17:46:02.032Z,100926.38
2022-11-24T17:48:28.771Z,100932.53
2022-11-24T17:51:07.880Z,100934.00
2022-11-24T17:53:39.549Z,100920.59
2022-11-24T17:56:13.016Z,100929.72
2022-11-24T17:58:42.887Z,100923.22
2022-11-24T18:01:11.098Z,100917.38
2022-11-24T18:03:39.666Z,100934.78
2022-11-24T18:06:08.120Z,100929.94
2022-11-24T18:08:36.297Z,100922.75
2022-11-24T18:11:09.701Z,100932.09
2022-11-24T18:16:24.423Z,100928.47
2022-11-24T18:19:07.404Z,100924.22
2022-11-24T18:21:34.773Z,100914.22
2022-11-24T18:24:01.305Z,100928.06
2022-11-24T18:26:27.823Z,100922.38
2022-11-24T18:28:54.506Z,100921.00
2022-11-24T18:31:22.521Z,100920.72
2022-11-24T18:33:49.082Z,100919.41
2022-11-24T18:36:18.170Z,100914.44
2022-11-24T18:38:45.211Z,100920.78
2022-11-24T18:41:13.574Z,100913.03
2022-11-24T18:43:40.547Z,100916.59
2022-11-24T18:46:09.975Z,100914.22
2022-11-24T18:48:36.651Z,100918.09
2022-11-24T18:51:03.362Z,100919.13
2022-11-24T18:53:30.099Z,100918.75
2022-11-24T18:55:58.600Z,100922.78
2022-11-24T18:58:28.715Z,100927.59
2022-11-24T19:01:04.873Z,100912.50
2022-11-24T19:03:31.533Z,100917.22
2022-11-24T19:06:02.332Z,100925.63
2022-11-24T19:08:28.864Z,100915.78
2022-11-24T19:10:55.502Z,100909.03
2022-11-24T19:13:22.058Z,100910.13
2022-11-24T19:15:49.613Z,100905.03
2022-11-24T19:18:16.434Z,100920.25
2022-11-24T19:20:43.247Z,100915.81
2022-11-24T19:23:09.801Z,100914.81
2022-11-24T19:25:36.346Z,100914.88
2022-11-24T19:28:03.443Z,100908.19
2022-11-24T19:30:30.225Z,100919.13
2022-11-24T19:32:57.545Z,100899.94
2022-11-24T19:35:24.188Z,100915.28
2022-11-24T19:37:51.311Z,100915.22
2022-11-24T19:40:18.549Z,100914.38
2022-11-24T19:42:45.151Z,100920.75
2022-11-24T19:45:11.678Z,100915.91
2022-11-24T19:47:38.668Z,100907.50
2022-11-24T19:50:10.148Z,100906.91
2022-11-24T19:52:37.102Z,100902.56
2022-11-24T19:55:03.839Z,100903.97
2022-11-24T19:57:30.365Z,100905.94
2022-11-24T19:59:56.873Z,100903.66
2022-11-24T20:02:23.479Z,100901.94
2022-11-24T20:04:50.169Z,100905.69
2022-11-24T20:07:16.857Z,100898.59
2022-11-24T20:09:43.472Z,100914.94
2022-11-24T20:12:10.226Z,100903.53
2022-11-24T20:14:37.313Z,100909.56
2022-11-24T20:17:06.617Z,100916.22
2022-11-24T20:19:33.219Z,100913.13
2022-11-24T20:22:00.268Z,100916.22
2022-11-24T20:24:26.838Z,100901.00
2022-11-24T20:26:58.917Z,100901.28
2022-11-24T20:29:26.064Z,100902.16
2022-11-24T20:31:54.513Z,100902.69
2022-11-24T20:34:21.990Z,100888.44
2022-11-24T20:36:48.957Z,100887.50
2022-11-24T20:39:18.149Z,100883.16
2022-11-24T20:41:45.229Z,100879.53
2022-11-24T20:44:15.442Z,100887.66
2022-11-24T20:46:43.275Z,100871.44
2022-11-24T20:49:14.471Z,100885.75
2022-11-24T20:51:46.941Z,100887.56
2022-11-24T20:54:14.909Z,100892.44
2022-11-24T20:56:43.878Z,100894.91
2022-11-24T20:59:13.895Z,100878.50
2022-11-24T21:01:44.171Z,100882.13
2022-11-24T21:04:14.316Z,100899.53
2022-11-24T21:06:41.061Z,100885.03
2022-11-24T21:09:09.022Z,100892.44
2022-11-24T21:11:37.092Z,100891.97
2022-11-24T21:14:03.940Z,100882.28
2022-11-24T21:16:32.605Z,100881.22
2022-11-24T21:19:01.528Z,100881.34
2022-11-24T21:21:33.971Z,100893.16
2022-11-24T21:24:15.055Z,100896.78
2022-11-24T21:26:42.896Z,100891.25
2022-11-24T21:29:13.106Z,100876.44
2022-11-24T21:31:40.080Z,100879.25
2022-11-24T21:34:08.057Z,100890.63
2022-11-24T21:36:35.625Z,100875.31
2022-11-24T21:39:03.757Z,100894.63
2022-11-24T21:41:33.064Z,100883.31
2022-11-24T21:43:59.743Z,100882.41
2022-11-24T21:46:28.108Z,100888.81
2022-11-24T21:48:54.648Z,100884.56
2022-11-24T21:51:21.501Z,100885.44
2022-11-24T21:53:48.903Z,100881.47
2022-11-24T21:56:18.073Z,100880.84
2022-11-24T21:58:53.152Z,100881.56
2022-11-24T22:01:21.877Z,100894.47
2022-11-24T22:03:48.616Z,100892.72
2022-11-24T22:06:16.710Z,100900.88
2022-11-24T22:08:43.695Z,100889.09
2022-11-24T22:11:16.725Z,100899.13
2022-11-24T22:13:44.361Z,100906.31
2022-11-24T22:16:13.663Z,100908.13
2022-11-24T22:18:41.882Z,100916.81
2022-11-24T22:21:11.983Z,100914.78
2022-11-24T22:23:38.873Z,100917.47
2022-11-24T22:26:08.084Z,100922.91
2022-11-24T22:28:35.930Z,100936.09
2022-11-24T22:31:06.966Z,100930.31
2022-11-24T22:33:33.984Z,100929.88
2022-11-24T22:36:01.792Z,100940.28
2022-11-24T22:38:29.787Z,100946.69
2022-11-24T22:41:01.418Z,100932.91
2022-11-24T22:43:29.849Z,100944.88
2022-11-24T22:45:56.443Z,100957.22
2022-11-24T22:48:23.014Z,100953.66
2022-11-24T22:50:49.660Z,100958.31
2022-11-24T22:53:16.426Z,100948.41
2022-11-24T22:55:43.015Z,100943.06
2022-11-24T22:58:09.679Z,100946.84
2022-11-24T23:00:36.240Z,100941.84
2022-11-24T23:03:02.790Z,100942.91
2022-11-24T23:05:29.404Z,100937.41
2022-11-24T23:07:56.125Z,100929.44
2022-11-24T23:10:23.245Z,100931.88
2022-11-24T23:12:50.065Z,100912.56
2022-11-24T23:15:16.780Z,100928.84
2022-11-24T23:17:43.364Z,100929.25
2022-11-24T23:20:10.607Z,100928.75
2022-11-24T23:22:37.263Z,100934.34
2022-11-24T23:25:03.990Z,100920.13
2022-11-24T23:27:30.485Z,100927.59
2022-11-24T23:29:56.996Z,100910.19
2022-11-24T23:32:23.598Z,100919.06
2022-11-24T23:34:50.153Z,100923.31
2022-11-24T23:37:16.806Z,100926.78
2022-11-24T23:39:43.710Z,100921.81
2022-11-24T23:42:10.180Z,100920.72
2022-11-24T23:44:36.984Z,100917.09
2022-11-24T23:47:03.737Z,100924.59
2022-11-24T23:49:30.500Z,100920.84
2022-11-24T23:51:57.370Z,100926.94
2022-11-24T23:54:23.897Z,100924.63
2022-11-24T23:56:50.573Z,100916.97
2022-11-24T23:59:18.877Z,100920.72
